createdAt,value
2022-10-29T00:02:41.596Z,96201.69
2022-10-29T00:05:44.569Z,96201.97
2022-10-29T00:08:47.569Z,96199.06
2022-10-29T00:11:51.945Z,96193.44
2022-10-29T00:14:55.062Z,96192.66
2022-10-29T00:17:58.550Z,96194.53
2022-10-29T00:21:02.918Z,96188.41
2022-10-29T00:24:06.807Z,96187.84
2022-10-29T00:27:11.225Z,96186.81
2022-10-29T00:30:15.288Z,96174.81
2022-10-29T00:36:24.763Z,96177.47
2022-10-29T00:39:29.555Z,96162.84
2022-10-29T00:42:33.985Z,96170.56
2022-10-29T00:45:37.031Z,96165.50
2022-10-29T00:48:45.075Z,96162.06
2022-10-29T00:51:49.471Z,96162.84
2022-10-29T00:54:54.690Z,96163.13
2022-10-29T00:58:00.911Z,96161.81
2022-10-29T01:01:04.239Z,96159.66
2022-10-29T01:04:07.982Z,96165.53
2022-10-29T01:07:11.818Z,96161.28
2022-10-29T01:10:16.331Z,96156.25
2022-10-29T01:13:43.515Z,96157.03
2022-10-29T01:16:50.633Z,96142.94
2022-10-29T01:20:33.409Z,96149.28
2022-10-29T01:24:04.182Z,96151.97
2022-10-29T01:27:52.930Z,96138.94
2022-10-29T01:31:20.411Z,96134.41
2022-10-29T01:34:30.053Z,96133.59
2022-10-29T01:37:37.430Z,96127.22
2022-10-29T01:40:51.093Z,96132.25
2022-10-29T01:43:59.080Z,96137.34
2022-10-29T01:47:05.447Z,96129.59
2022-10-29T01:50:12.337Z,96124.28
2022-10-29T01:53:15.662Z,96126.13
2022-10-29T01:56:19.246Z,96121.88
2022-10-29T01:59:35.425Z,96121.88
2022-10-29T02:02:52.645Z,96121.88
2022-10-29T02:06:01.799Z,96121.88
2022-10-29T02:09:14.220Z,96125.63
2022-10-29T02:12:22.676Z,96131.72
2022-10-29T02:15:30.632Z,96115.25
2022-10-29T02:21:44.318Z,96109.13
2022-10-29T02:27:50.547Z,96109.41
2022-10-29T02:30:53.503Z,96113.13
2022-10-29T02:33:57.915Z,96107.28
2022-10-29T02:37:00.942Z,96111.81
2022-10-29T02:40:04.145Z,96110.47
2022-10-29T02:43:07.130Z,96106.50
2022-10-29T02:46:14.922Z,96103.31
2022-10-29T02:49:19.328Z,96098.78
2022-10-29T02:52:22.645Z,96102.00
2022-10-29T02:55:25.784Z,96102.53
2022-10-29T02:58:28.833Z,96099.59
2022-10-29T03:01:31.971Z,96094.81
2022-10-29T03:04:36.502Z,96102.78
2022-10-29T03:07:40.383Z,96103.31
2022-10-29T03:10:43.775Z,96107.59
2022-10-29T03:13:46.784Z,96111.84
2022-10-29T03:16:49.779Z,96103.31
2022-10-29T03:19:54.216Z,96100.66
2022-10-29T03:22:57.297Z,96104.13
2022-10-29T03:26:00.337Z,96096.94
2022-10-29T03:29:03.614Z,96096.69
2022-10-29T03:32:07.378Z,96094.00
2022-10-29T03:35:13.719Z,96091.91
2022-10-29T03:38:16.738Z,96086.56
2022-10-29T03:41:19.787Z,96089.00
2022-10-29T03:44:22.846Z,96081.00
2022-10-29T03:47:26.117Z,96084.19
2022-10-29T03:50:30.553Z,96082.06
2022-10-29T03:53:34.706Z,96085.78
2022-10-29T03:56:37.720Z,96085.25
2022-10-29T03:59:40.773Z,96084.19
2022-10-29T04:02:43.956Z,96084.19
2022-10-29T04:05:48.399Z,96083.41
2022-10-29T04:08:51.518Z,96084.47
2022-10-29T04:11:54.578Z,96091.66
2022-10-29T04:14:57.689Z,96095.63
2022-10-29T04:18:00.682Z,96104.44
2022-10-29T04:22:40.353Z,96100.69
2022-10-29T04:31:15.244Z,96120.94
2022-10-29T04:34:18.230Z,96117.19
2022-10-29T04:37:22.624Z,96123.31
2022-10-29T04:40:26.211Z,96121.47
2022-10-29T04:43:30.120Z,96108.69
2022-10-29T04:46:33.106Z,96113.22
2022-10-29T04:49:36.109Z,96118.53
2022-10-29T04:52:40.925Z,96120.41
2022-10-29T04:55:44.471Z,96122.25
2022-10-29T04:58:47.536Z,96119.84
2022-10-29T05:01:50.492Z,96127.88
2022-10-29T05:04:53.463Z,96125.47
2022-10-29T05:08:01.574Z,96118.31
2022-10-29T05:11:05.320Z,96116.19
2022-10-29T05:14:08.310Z,96116.19
2022-10-29T05:17:11.283Z,96118.84
2022-10-29T05:20:14.271Z,96114.31
2022-10-29T05:23:18.661Z,96119.09
2022-10-29T05:26:21.689Z,96117.50
2022-10-29T05:29:24.782Z,96114.31
2022-10-29T05:32:29.867Z,96117.00
2022-10-29T05:35:32.915Z,96121.25
2022-10-29T05:38:37.473Z,96123.63
2022-10-29T05:41:40.817Z,96123.09
2022-10-29T05:44:43.867Z,96132.66
2022-10-29T05:47:46.927Z,96137.97
2022-10-29T05:50:50.105Z,96137.16
2022-10-29T05:53:54.567Z,96132.66
2022-10-29T06:00:18.753Z,96147.50
2022-10-29T06:03:23.736Z,96133.72
2022-10-29T06:06:27.263Z,96149.38
2022-10-29T06:09:31.750Z,96147.59
2022-10-29T06:13:22.033Z,96145.81
2022-10-29T06:16:26.607Z,96157.34
2022-10-29T06:19:29.809Z,96160.00
2022-10-29T06:22:33.248Z,96147.72
2022-10-29T06:25:37.814Z,96154.63
2022-10-29T06:28:48.108Z,96154.09
2022-10-29T06:32:04.369Z,96152.72
2022-10-29T06:35:11.274Z,96152.22
2022-10-29T06:38:17.233Z,96147.47
2022-10-29T06:41:33.576Z,96149.09
2022-10-29T06:44:39.984Z,96141.69
2022-10-29T06:47:44.288Z,96140.56
2022-10-29T06:50:50.059Z,96141.00
2022-10-29T06:53:54.217Z,96133.50
2022-10-29T06:57:00.183Z,96143.81
2022-10-29T07:00:07.530Z,96148.31
2022-10-29T07:03:14.166Z,96145.56
2022-10-29T07:06:17.193Z,96150.59
2022-10-29T07:09:20.352Z,96145.47
2022-10-29T07:12:24.977Z,96155.34
2022-10-29T07:15:30.650Z,96153.72
2022-10-29T07:18:34.144Z,96158.72
2022-10-29T07:21:37.156Z,96163.50
2022-10-29T07:24:40.362Z,96159.75
2022-10-29T07:27:47.154Z,96170.41
2022-10-29T07:30:50.924Z,96173.34
2022-10-29T07:33:54.105Z,96174.66
2022-10-29T07:36:57.173Z,96169.56
2022-10-29T07:40:00.349Z,96155.97
2022-10-29T07:43:05.245Z,96162.31
2022-10-29T07:46:09.140Z,96155.13
2022-10-29T07:49:12.397Z,96156.19
2022-10-29T07:52:19.340Z,96155.56
2022-10-29T07:55:22.799Z,96153.84
2022-10-29T07:58:27.971Z,96150.06
2022-10-29T08:01:42.555Z,96154.25
2022-10-29T08:05:00.579Z,96152.63
2022-10-29T08:08:03.751Z,96150.47
2022-10-29T08:11:07.565Z,96147.50
2022-10-29T08:14:12.916Z,96144.84
2022-10-29T08:17:24.422Z,96144.56
2022-10-29T08:20:29.735Z,96144.56
2022-10-29T08:23:32.850Z,96133.91
2022-10-29T08:26:35.925Z,96137.09
2022-10-29T08:29:40.426Z,96138.19
2022-10-29T08:32:47.842Z,96133.34
2022-10-29T08:35:50.946Z,96131.78
2022-10-29T08:38:56.840Z,96136.03
2022-10-29T08:42:12.184Z,96124.03
2022-10-29T08:45:26.598Z,96117.09
2022-10-29T08:48:38.159Z,96112.03
2022-10-29T08:51:43.985Z,96112.56
2022-10-29T08:54:57.051Z,96106.44
2022-10-29T08:58:17.652Z,96103.75
2022-10-29T09:01:26.688Z,96101.91
2022-10-29T09:04:35.552Z,96097.34
2022-10-29T09:07:58.423Z,96102.69
2022-10-29T09:11:19.754Z,96103.38
2022-10-29T09:14:39.718Z,96099.97
2022-10-29T09:17:56.340Z,96099.94
2022-10-29T09:21:11.036Z,96090.84
2022-10-29T09:24:18.429Z,96087.09
2022-10-29T09:27:37.499Z,96086.00
2022-10-29T09:31:00.719Z,96082.78
2022-10-29T09:34:11.696Z,96079.88
2022-10-29T09:37:19.006Z,96076.59
2022-10-29T09:40:33.623Z,96069.91
2022-10-29T09:43:44.478Z,96069.00
2022-10-29T09:46:59.756Z,96064.91
2022-10-29T09:50:15.366Z,96067.56
2022-10-29T09:53:19.295Z,96062.78
2022-10-29T09:56:22.499Z,96055.56
2022-10-29T09:59:32.574Z,96054.25
2022-10-29T10:02:38.555Z,96051.31
2022-10-29T10:06:02.099Z,96041.19
2022-10-29T10:09:06.787Z,96034.63
2022-10-29T10:12:09.842Z,96024.06
2022-10-29T10:15:24.183Z,96022.44
2022-10-29T10:18:29.311Z,96014.16
2022-10-29T10:21:34.883Z,96009.59
2022-10-29T10:24:41.193Z,96003.75
2022-10-29T10:27:44.264Z,96001.34
2022-10-29T10:30:47.412Z,95996.84
2022-10-29T10:33:53.570Z,95989.91
2022-10-29T10:37:04.349Z,95982.97
2022-10-29T10:40:09.046Z,95971.00
2022-10-29T10:43:22.971Z,95969.94
2022-10-29T10:46:30.996Z,95972.84
2022-10-29T10:49:36.859Z,95963.69
2022-10-29T10:52:42.300Z,95960.53
2022-10-29T10:55:49.263Z,95951.31
2022-10-29T10:58:59.717Z,95948.47
2022-10-29T11:02:05.397Z,95939.38
2022-10-29T11:05:17.111Z,95932.72
2022-10-29T11:08:27.557Z,95938.31
2022-10-29T11:11:33.592Z,95933.03
2022-10-29T11:14:43.137Z,95928.72
2022-10-29T11:17:54.284Z,95919.41
2022-10-29T11:21:06.258Z,95921.00
2022-10-29T11:24:18.068Z,95911.69
2022-10-29T11:27:29.400Z,95902.13
2022-10-29T11:30:39.616Z,95890.97
2022-10-29T11:33:52.083Z,95889.44
2022-10-29T11:37:02.068Z,95891.81
2022-10-29T11:40:14.861Z,95888.38
2022-10-29T11:43:20.977Z,95882.53
2022-10-29T11:46:40.861Z,95883.69
2022-10-29T11:50:07.594Z,95878.44
2022-10-29T11:53:26.950Z,95872.81
2022-10-29T11:56:49.818Z,95871.72
2022-10-29T12:00:05.046Z,95874.69
2022-10-29T12:03:29.635Z,95868.31
2022-10-29T12:06:41.443Z,95865.66
2022-10-29T12:10:07.317Z,95850.44
2022-10-29T12:13:22.260Z,95849.66
2022-10-29T12:16:36.948Z,95840.56
2022-10-29T12:19:49.031Z,95836.03
2022-10-29T12:23:02.523Z,95829.09
2022-10-29T12:26:16.261Z,95833.66
2022-10-29T12:29:28.540Z,95828.59
2022-10-29T12:32:39.062Z,95830.19
2022-10-29T12:35:46.447Z,95822.78
2022-10-29T12:38:54.033Z,95818.22
2022-10-29T12:42:02.765Z,95823.56
2022-10-29T12:45:23.341Z,95822.47
2022-10-29T12:48:39.366Z,95821.97
2022-10-29T12:51:52.286Z,95814.78
2022-10-29T12:54:56.975Z,95810.00
2022-10-29T12:58:00.098Z,95807.34
2022-10-29T13:01:04.602Z,95800.72
2022-10-29T13:04:23.960Z,95802.31
2022-10-29T13:07:27.030Z,95796.47
2022-10-29T13:10:50.643Z,95795.91
2022-10-29T13:14:00.557Z,95790.56
2022-10-29T13:17:06.936Z,95785.53
2022-10-29T13:20:22.602Z,95782.84
2022-10-29T13:23:37.519Z,95779.91
2022-10-29T13:27:02.294Z,95775.94
2022-10-29T13:30:29.810Z,95774.06
2022-10-29T13:33:52.486Z,95775.16
2022-10-29T13:37:15.512Z,95772.78
2022-10-29T13:40:41.335Z,95772.78
2022-10-29T13:43:55.047Z,95772.47
2022-10-29T13:47:01.701Z,95770.91
2022-10-29T13:50:08.358Z,95773.78
2022-10-29T13:53:15.042Z,95762.53
2022-10-29T13:56:24.061Z,95769.81
2022-10-29T13:59:36.229Z,95759.72
2022-10-29T14:02:55.790Z,95768.28
2022-10-29T14:06:05.019Z,95747.75
2022-10-29T14:09:16.662Z,95753.38
2022-10-29T14:12:23.930Z,95753.38
2022-10-29T14:15:27.033Z,95749.34
2022-10-29T14:18:32.945Z,95748.03
2022-10-29T14:21:40.549Z,95741.72
2022-10-29T14:24:43.664Z,95741.50
2022-10-29T14:27:46.696Z,95749.56
2022-10-29T14:31:00.400Z,95748.00
2022-10-29T14:34:03.416Z,95743.72
2022-10-29T14:37:15.136Z,95745.59
2022-10-29T14:40:21.318Z,95745.53
2022-10-29T14:43:28.034Z,95744.38
2022-10-29T14:46:32.610Z,95740.13
2022-10-29T14:49:40.393Z,95750.00
2022-10-29T14:52:52.493Z,95747.03
2022-10-29T14:55:57.252Z,95750.78
2022-10-29T14:59:01.905Z,95750.00
2022-10-29T15:02:36.346Z,95753.44
2022-10-29T15:05:36.666Z,95743.00
2022-10-29T15:08:42.589Z,95742.22
2022-10-29T15:11:59.602Z,95753.75
2022-10-29T15:15:10.059Z,95751.94
2022-10-29T15:18:20.651Z,95750.91
2022-10-29T15:21:25.208Z,95755.69
2022-10-29T15:24:29.664Z,95753.88
2022-10-29T15:27:32.908Z,95756.03
2022-10-29T15:30:37.903Z,95768.28
2022-10-29T15:33:40.931Z,95759.69
2022-10-29T15:36:48.083Z,95769.53
2022-10-29T15:40:05.179Z,95775.44
2022-10-29T15:43:29.578Z,95770.31
2022-10-29T15:46:44.804Z,95772.19
2022-10-29T15:49:47.775Z,95778.59
2022-10-29T15:52:55.224Z,95781.84
2022-10-29T15:56:01.038Z,95783.13
2022-10-29T15:59:04.194Z,95781.25
2022-10-29T16:02:12.641Z,95783.63
2022-10-29T16:05:16.802Z,95793.50
2022-10-29T16:08:26.301Z,95793.50
2022-10-29T16:11:30.735Z,95790.84
2022-10-29T16:14:33.718Z,95792.94
2022-10-29T16:17:36.684Z,95794.31
2022-10-29T16:20:39.678Z,95795.38
2022-10-29T16:23:42.962Z,95800.13
2022-10-29T16:26:47.399Z,95811.31
2022-10-29T16:29:51.768Z,95810.44
2022-10-29T16:32:55.860Z,95815.34
2022-10-29T16:35:59.083Z,95808.75
2022-10-29T16:39:02.448Z,95812.22
2022-10-29T16:42:07.299Z,95820.78
2022-10-29T16:45:14.799Z,95824.81
2022-10-29T16:48:17.816Z,95819.78
2022-10-29T16:51:20.811Z,95823.31
2022-10-29T16:54:23.790Z,95819.34
2022-10-29T16:57:29.512Z,95817.75
2022-10-29T17:00:33.204Z,95824.69
2022-10-29T17:03:36.247Z,95817.75
2022-10-29T17:06:39.259Z,95823.63
2022-10-29T17:09:42.295Z,95823.09
2022-10-29T17:12:46.716Z,95831.09
2022-10-29T17:15:49.696Z,95835.88
2022-10-29T17:18:52.659Z,95827.63
2022-10-29T17:21:58.697Z,95831.06
2022-10-29T17:25:01.680Z,95826.78
2022-10-29T17:28:06.070Z,95843.59
2022-10-29T17:31:10.197Z,95832.09
2022-10-29T17:34:13.262Z,95842.69
2022-10-29T17:37:16.254Z,95838.34
2022-10-29T17:40:19.404Z,95839.94
2022-10-29T17:43:23.832Z,95842.56
2022-10-29T17:46:26.886Z,95835.38
2022-10-29T17:49:29.984Z,95839.31
2022-10-29T17:52:33.017Z,95836.94
2022-10-29T17:55:36.098Z,95843.66
2022-10-29T17:58:40.780Z,95838.84
2022-10-29T18:01:45.432Z,95845.28
2022-10-29T18:04:48.596Z,95843.94
2022-10-29T18:07:51.649Z,95847.59
2022-10-29T18:10:57.636Z,95841.19
2022-10-29T18:14:02.151Z,95857.41
2022-10-29T18:17:05.273Z,95854.16
2022-10-29T18:20:09.196Z,95851.50
2022-10-29T18:23:12.165Z,95859.22
2022-10-29T18:26:23.996Z,95862.16
2022-10-29T18:29:28.449Z,95860.56
2022-10-29T18:32:31.541Z,95859.56
2022-10-29T18:35:34.594Z,95861.16
2022-10-29T18:38:37.589Z,95864.31
2022-10-29T18:41:40.852Z,95865.91
2022-10-29T18:44:45.283Z,95872.25
2022-10-29T18:47:48.531Z,95867.50
2022-10-29T18:50:51.867Z,95864.59
2022-10-29T18:53:57.884Z,95860.94
2022-10-29T18:57:01.090Z,95866.19
2022-10-29T19:00:06.285Z,95860.00
2022-10-29T19:03:10.017Z,95866.38
2022-10-29T19:06:14.795Z,95859.00
2022-10-29T19:09:17.832Z,95857.47
2022-10-29T19:12:21.123Z,95852.44
2022-10-29T19:15:25.576Z,95860.06
2022-10-29T19:18:28.685Z,95856.03
2022-10-29T19:21:32.164Z,95856.03
2022-10-29T19:24:35.165Z,95850.41
2022-10-29T19:27:38.175Z,95854.38
2022-10-29T19:30:42.599Z,95852.16
2022-10-29T19:33:48.640Z,95857.97
2022-10-29T19:36:51.729Z,95851.28
2022-10-29T19:39:54.753Z,95866.13
2022-10-29T19:42:57.785Z,95862.16
2022-10-29T19:46:02.317Z,95866.41
2022-10-29T19:49:05.666Z,95867.78
2022-10-29T19:52:08.801Z,95873.41
2022-10-29T19:55:11.791Z,95871.88
2022-10-29T19:58:14.806Z,95873.50
2022-10-29T20:01:19.898Z,95867.63
2022-10-29T20:04:23.046Z,95866.78
2022-10-29T20:07:26.183Z,95877.16
2022-10-29T20:10:29.273Z,95875.13
2022-10-29T20:13:32.568Z,95880.22
2022-10-29T20:16:37.024Z,95882.16
2022-10-29T20:19:39.988Z,95876.59
2022-10-29T20:22:43.017Z,95878.97
2022-10-29T20:25:46.055Z,95890.44
2022-10-29T20:28:49.157Z,95893.88
2022-10-29T20:31:53.563Z,95888.84
2022-10-29T20:34:56.539Z,95882.22
2022-10-29T20:37:59.824Z,95893.38
2022-10-29T20:41:03.254Z,95891.78
2022-10-29T20:44:06.562Z,95888.63
2022-10-29T20:47:11.031Z,95889.41
2022-10-29T20:50:14.113Z,95897.69
2022-10-29T20:53:17.145Z,95894.75
2022-10-29T20:56:20.652Z,95892.34
2022-10-29T20:59:23.876Z,95893.41
2022-10-29T21:02:28.396Z,95897.69
2022-10-29T21:05:31.489Z,95896.91
2022-10-29T21:08:35.461Z,95890.75
2022-10-29T21:11:38.464Z,95897.69
2022-10-29T21:14:41.517Z,95895.03
2022-10-29T21:17:45.960Z,95895.28
2022-10-29T21:20:48.992Z,95888.38
2022-10-29T21:23:52.165Z,95891.03
2022-10-29T21:26:55.253Z,95885.69
2022-10-29T21:29:58.516Z,95884.91
2022-10-29T21:33:02.934Z,95892.91
2022-10-29T21:36:06.921Z,95882.25
2022-10-29T21:39:09.934Z,95879.59
2022-10-29T21:42:12.982Z,95879.84
2022-10-29T21:45:16.048Z,95876.09
2022-10-29T21:48:20.797Z,95869.97
2022-10-29T21:51:23.859Z,95873.44
2022-10-29T21:54:28.384Z,95858.25
2022-10-29T21:57:31.589Z,95868.38
2022-10-29T22:00:35.053Z,95864.63
2022-10-29T22:03:41.876Z,95863.34
2022-10-29T22:06:44.841Z,95863.13
2022-10-29T22:09:47.856Z,95859.88
2022-10-29T22:12:50.922Z,95864.19
2022-10-29T22:15:54.018Z,95861.31
2022-10-29T22:18:58.474Z,95854.69
2022-10-29T22:22:01.475Z,95855.22
2022-10-29T22:25:04.601Z,95857.38
2022-10-29T22:28:07.659Z,95851.53
2022-10-29T22:31:11.069Z,95860.09
2022-10-29T22:34:15.568Z,95854.28
2022-10-29T22:37:18.634Z,95848.44
2022-10-29T22:40:21.615Z,95846.84
2022-10-29T22:43:24.657Z,95855.13
2022-10-29T22:46:30.444Z,95854.31
2022-10-29T22:49:34.867Z,95858.84
2022-10-29T22:52:37.906Z,95859.91
2022-10-29T22:55:40.991Z,95848.75
2022-10-29T22:58:44.044Z,95862.34
2022-10-29T23:01:47.157Z,95862.63
2022-10-29T23:04:51.640Z,95867.44
2022-10-29T23:07:54.898Z,95867.44
2022-10-29T23:10:58.547Z,95859.22
2022-10-29T23:14:02.753Z,95855.50
2022-10-29T23:17:05.735Z,95861.91
2022-10-29T23:20:10.728Z,95854.97
2022-10-29T23:23:14.460Z,95858.72
2022-10-29T23:26:17.735Z,95866.72
2022-10-29T23:29:20.710Z,95866.19
2022-10-29T23:32:23.742Z,95866.19
2022-10-29T23:35:28.178Z,95851.28
2022-10-29T23:38:31.394Z,95850.22
2022-10-29T23:41:34.412Z,95843.28
2022-10-29T23:44:37.414Z,95834.00
2022-10-29T23:47:40.651Z,95834.78
2022-10-29T23:50:45.265Z,95831.06
2022-10-29T23:53:50.436Z,95827.88
2022-10-29T23:56:56.319Z,95827.38
2022-10-29T23:59:59.350Z,95827.66
